PWSweather.com
Personal Weather Stations
Station Observations
KMAMEDFI2
Medfield, MA 02052

Medfield, MA 02052

Lat: 42.1900822, Lon: -71.3296889

Elevation: 138

Station Type: Rainwise WS MK-III

http://www.medfieldweather.com

High Low Average
Temperature 63.9°F17.7°C 47.2°F8.4°C 53.4°F11.9°C
Dew Point 59.8°F15.4°C 46.3°F7.9°C 52.0°F11.1°C
Winds 4.6 mph 7.4 kmh Calm Calm 2.0 mph SE3.2 kmh SE
Wind Gusts 11.5 mph18.5 kmh -- 3.0 mph4.8 kmh
Humidity 98% 76% 95%
Pressure 30.15 in1021.0 mb 29.96 in1014.6 mb -
Precipitation 1.82 in46.2 mm - -
Hour Temp Dew Point Humidity Winds Wind Gusts Pressure Precip Precip Rate Daily Precip Total
12:00 AM 50.7°F10.4°C 49.8°F9.9°C 97% Calm Calm -- 30.15 in1021.0 mb - 0.00 in0.0 mm 0.00 in0.0 mm
12:10 AM 50.2°F10.1°C 49.3°F9.6°C 97% Calm Calm -- 30.15 in1021.0 mb - 0.00 in0.0 mm 0.00 in0.0 mm
12:20 AM 50.2°F10.1°C 49.4°F9.7°C 97% Calm Calm -- 30.15 in1021.0 mb - 0.00 in0.0 mm 0.00 in0.0 mm
12:30 AM 50.3°F10.2°C 49.4°F9.7°C 97% Calm Calm -- 30.15 in1021.0 mb - 0.00 in0.0 mm 0.00 in0.0 mm
12:40 AM 50.2°F10.1°C 49.4°F9.7°C 97% Calm Calm -- 30.14 in1020.7 mb - 0.00 in0.0 mm 0.00 in0.0 mm
12:50 AM 50.3°F10.2°C 49.4°F9.7°C 97% Calm Calm -- 30.14 in1020.7 mb - 0.00 in0.0 mm 0.00 in0.0 mm
01:00 AM 50.3°F10.2°C 49.4°F9.7°C 97% Calm Calm 1.2 mph1.9 kmh 30.14 in1020.7 mb - 0.00 in0.0 mm 0.00 in0.0 mm
01:10 AM 50.3°F10.2°C 49.5°F9.7°C 97% Calm Calm -- 30.14 in1020.7 mb - 0.00 in0.0 mm 0.00 in0.0 mm
01:20 AM 50.4°F10.2°C 49.5°F9.7°C 97% Calm Calm -- 30.14 in1020.7 mb - 0.00 in0.0 mm 0.00 in0.0 mm
01:30 AM 50.2°F10.1°C 49.4°F9.7°C 97% Calm Calm -- 30.14 in1020.7 mb - 0.00 in0.0 mm 0.00 in0.0 mm
01:40 AM 50.2°F10.1°C 49.4°F9.7°C 97% Calm Calm -- 30.14 in1020.7 mb - 0.00 in0.0 mm 0.00 in0.0 mm
01:50 AM 50.1°F10.1°C 49.3°F9.6°C 97% Calm Calm -- 30.13 in1020.3 mb - 0.00 in0.0 mm 0.00 in0.0 mm
02:00 AM 50.0°F10.0°C 49.2°F9.6°C 97% Calm Calm -- 30.13 in1020.3 mb - 0.00 in0.0 mm 0.00 in0.0 mm
02:10 AM 49.9°F9.9°C 49.0°F9.4°C 97% Calm Calm -- 30.13 in1020.3 mb - 0.00 in0.0 mm 0.00 in0.0 mm
02:20 AM 49.9°F9.9°C 49.0°F9.4°C 97% Calm Calm -- 30.12 in1020.0 mb - 0.00 in0.0 mm 0.00 in0.0 mm
02:30 AM 49.7°F9.8°C 48.9°F9.4°C 97% Calm Calm -- 30.12 in1020.0 mb - 0.00 in0.0 mm 0.00 in0.0 mm
02:40 AM 49.6°F9.8°C 48.8°F9.3°C 97% Calm Calm -- 30.13 in1020.3 mb - 0.00 in0.0 mm 0.00 in0.0 mm
02:50 AM 49.3°F9.6°C 48.5°F9.2°C 97% Calm Calm -- 30.12 in1020.0 mb - 0.00 in0.0 mm 0.00 in0.0 mm
03:00 AM 49.1°F9.5°C 48.3°F9.1°C 97% Calm Calm -- 30.12 in1020.0 mb - 0.00 in0.0 mm 0.00 in0.0 mm
03:10 AM 49.3°F9.6°C 48.5°F9.2°C 97% Calm Calm -- 30.12 in1020.0 mb - 0.00 in0.0 mm 0.00 in0.0 mm
03:20 AM 49.4°F9.7°C 48.5°F9.2°C 97% Calm Calm -- 30.11 in1019.6 mb - 0.00 in0.0 mm 0.00 in0.0 mm
03:30 AM 49.2°F9.6°C 48.4°F9.1°C 97% Calm Calm -- 30.11 in1019.6 mb - 0.00 in0.0 mm 0.00 in0.0 mm
03:40 AM 49.0°F9.4°C 48.2°F9.0°C 97% Calm Calm -- 30.11 in1019.6 mb - 0.00 in0.0 mm 0.00 in0.0 mm
03:50 AM 48.6°F9.2°C 47.8°F8.8°C 97% Calm Calm -- 30.10 in1019.3 mb - 0.00 in0.0 mm 0.00 in0.0 mm
04:00 AM 48.4°F9.1°C 47.6°F8.7°C 97% Calm Calm -- 30.11 in1019.6 mb - 0.00 in0.0 mm 0.00 in0.0 mm
04:10 AM 48.2°F9.0°C 47.4°F8.6°C 97% Calm Calm -- 30.10 in1019.3 mb - 0.00 in0.0 mm 0.00 in0.0 mm
04:20 AM 47.9°F8.8°C 47.1°F8.4°C 97% Calm Calm -- 30.10 in1019.3 mb - 0.00 in0.0 mm 0.00 in0.0 mm
04:30 AM 47.5°F8.6°C 46.7°F8.2°C 97% Calm Calm -- 30.09 in1019.0 mb - 0.00 in0.0 mm 0.00 in0.0 mm
04:40 AM 47.5°F8.6°C 46.7°F8.2°C 97% Calm Calm -- 30.09 in1019.0 mb - 0.00 in0.0 mm 0.00 in0.0 mm
04:50 AM 47.4°F8.6°C 46.6°F8.1°C 97% Calm Calm -- 30.10 in1019.3 mb - 0.00 in0.0 mm 0.00 in0.0 mm
05:00 AM 47.2°F8.4°C 46.3°F7.9°C 97% Calm Calm -- 30.10 in1019.3 mb - 0.00 in0.0 mm 0.00 in0.0 mm
05:10 AM 47.2°F8.4°C 46.3°F7.9°C 97% Calm Calm -- 30.10 in1019.3 mb - 0.00 in0.0 mm 0.00 in0.0 mm
05:20 AM 47.5°F8.6°C 46.7°F8.2°C 97% Calm Calm -- 30.10 in1019.3 mb - 0.00 in0.0 mm 0.00 in0.0 mm
05:30 AM 47.7°F8.7°C 46.8°F8.2°C 97% Calm Calm -- 30.10 in1019.3 mb - 0.00 in0.0 mm 0.00 in0.0 mm
05:40 AM 47.7°F8.7°C 46.9°F8.3°C 97% Calm Calm -- 30.11 in1019.6 mb - 0.00 in0.0 mm 0.00 in0.0 mm
05:50 AM 47.7°F8.7°C 46.8°F8.2°C 97% Calm Calm -- 30.11 in1019.6 mb - 0.00 in0.0 mm 0.00 in0.0 mm
06:00 AM 47.8°F8.8°C 47.0°F8.3°C 97% Calm Calm -- 30.11 in1019.6 mb - 0.00 in0.0 mm 0.00 in0.0 mm
06:10 AM 48.3°F9.1°C 47.5°F8.6°C 97% Calm Calm -- 30.11 in1019.6 mb - 0.00 in0.0 mm 0.00 in0.0 mm
06:20 AM 48.9°F9.4°C 48.1°F8.9°C 97% Calm Calm -- 30.12 in1020.0 mb - 0.00 in0.0 mm 0.00 in0.0 mm
06:30 AM 49.4°F9.7°C 48.6°F9.2°C 97% Calm Calm -- 30.12 in1020.0 mb - 0.00 in0.0 mm 0.00 in0.0 mm
06:40 AM 49.8°F9.9°C 49.0°F9.4°C 97% Calm Calm -- 30.12 in1020.0 mb - 0.00 in0.0 mm 0.00 in0.0 mm
06:50 AM 50.6°F10.3°C 49.8°F9.9°C 97% Calm Calm -- 30.12 in1020.0 mb - 0.00 in0.0 mm 0.00 in0.0 mm
07:00 AM 51.3°F10.7°C 50.5°F10.3°C 97% Calm Calm 2.3 mph3.7 kmh 30.12 in1020.0 mb - 0.00 in0.0 mm 0.00 in0.0 mm
07:10 AM 52.3°F11.3°C 51.5°F10.8°C 97% Calm Calm -- 30.13 in1020.3 mb - 0.00 in0.0 mm 0.00 in0.0 mm
07:20 AM 53.4°F11.9°C 52.5°F11.4°C 97% 1.2 mph NE1.9 kmh NE 1.2 mph1.9 kmh 30.13 in1020.3 mb - 0.00 in0.0 mm 0.00 in0.0 mm
07:30 AM 54.1°F12.3°C 53.2°F11.8°C 97% 2.3 mph E3.7 kmh E 2.3 mph3.7 kmh 30.13 in1020.3 mb - 0.00 in0.0 mm 0.00 in0.0 mm
07:40 AM 54.7°F12.6°C 53.8°F12.1°C 97% 2.3 mph E3.7 kmh E 2.3 mph3.7 kmh 30.14 in1020.7 mb - 0.00 in0.0 mm 0.00 in0.0 mm
07:50 AM 54.9°F12.7°C 54.1°F12.3°C 97% 2.3 mph NE3.7 kmh NE 3.5 mph5.6 kmh 30.13 in1020.3 mb - 0.00 in0.0 mm 0.00 in0.0 mm
08:00 AM 55.7°F13.2°C 54.8°F12.7°C 97% 2.3 mph N3.7 kmh N 2.3 mph3.7 kmh 30.13 in1020.3 mb - 0.00 in0.0 mm 0.00 in0.0 mm
08:10 AM 56.3°F13.5°C 55.4°F13.0°C 97% 2.3 mph N3.7 kmh N 5.8 mph9.3 kmh 30.13 in1020.3 mb - 0.00 in0.0 mm 0.00 in0.0 mm
08:20 AM 57.3°F14.1°C 56.4°F13.6°C 97% 3.5 mph E5.6 kmh E 2.3 mph3.7 kmh 30.13 in1020.3 mb - 0.00 in0.0 mm 0.00 in0.0 mm
08:30 AM 57.8°F14.3°C 56.9°F13.8°C 97% 4.6 mph ENE7.4 kmh ENE 5.8 mph9.3 kmh 30.13 in1020.3 mb - 0.00 in0.0 mm 0.00 in0.0 mm
08:40 AM 58.4°F14.7°C 57.8°F14.3°C 98% 3.5 mph SE5.6 kmh SE 5.8 mph9.3 kmh 30.13 in1020.3 mb - 0.00 in0.0 mm 0.00 in0.0 mm
08:50 AM 58.7°F14.8°C 58.1°F14.5°C 98% 3.5 mph ENE5.6 kmh ENE 2.3 mph3.7 kmh 30.13 in1020.3 mb - 0.00 in0.0 mm 0.00 in0.0 mm
09:00 AM 59.4°F15.2°C 58.8°F14.9°C 98% 2.3 mph SE3.7 kmh SE 2.3 mph3.7 kmh 30.14 in1020.7 mb - 0.00 in0.0 mm 0.00 in0.0 mm
09:10 AM 60.4°F15.8°C 59.8°F15.4°C 98% 2.3 mph E3.7 kmh E 2.3 mph3.7 kmh 30.13 in1020.3 mb - 0.00 in0.0 mm 0.00 in0.0 mm
09:20 AM 61.4°F16.3°C 59.3°F15.2°C 93% 1.2 mph NW1.9 kmh NW 5.8 mph9.3 kmh 30.13 in1020.3 mb - 0.00 in0.0 mm 0.00 in0.0 mm
09:30 AM 62.5°F16.9°C 58.2°F14.6°C 86% 4.6 mph SE7.4 kmh SE 5.8 mph9.3 kmh 30.13 in1020.3 mb - 0.00 in0.0 mm 0.00 in0.0 mm
09:40 AM 62.1°F16.7°C 57.8°F14.3°C 86% 4.6 mph E7.4 kmh E 8.1 mph13.0 kmh 30.13 in1020.3 mb - 0.00 in0.0 mm 0.00 in0.0 mm
09:50 AM 62.3°F16.8°C 58.4°F14.7°C 87% 3.5 mph E5.6 kmh E 5.8 mph9.3 kmh 30.13 in1020.3 mb - 0.00 in0.0 mm 0.00 in0.0 mm
10:00 AM 63.3°F17.4°C 58.4°F14.7°C 84% 3.5 mph ENE5.6 kmh ENE 5.8 mph9.3 kmh 30.13 in1020.3 mb - 0.00 in0.0 mm 0.00 in0.0 mm
10:10 AM 63.9°F17.7°C 57.2°F14.0°C 79% 2.3 mph ESE3.7 kmh ESE 2.3 mph3.7 kmh 30.13 in1020.3 mb - 0.00 in0.0 mm 0.00 in0.0 mm
10:20 AM 63.1°F17.3°C 56.8°F13.8°C 80% 3.5 mph E5.6 kmh E 5.8 mph9.3 kmh 30.13 in1020.3 mb - 0.00 in0.0 mm 0.00 in0.0 mm
10:30 AM 61.9°F16.6°C 55.6°F13.1°C 80% 4.6 mph ENE7.4 kmh ENE 6.9 mph11.1 kmh 30.13 in1020.3 mb - 0.00 in0.0 mm 0.00 in0.0 mm
10:40 AM 61.7°F16.5°C 55.4°F13.0°C 80% 3.5 mph ENE5.6 kmh ENE 5.8 mph9.3 kmh 30.13 in1020.3 mb - 0.00 in0.0 mm 0.00 in0.0 mm
10:50 AM 62.1°F16.7°C 55.9°F13.3°C 80% 4.6 mph NE7.4 kmh NE 5.8 mph9.3 kmh 30.12 in1020.0 mb - 0.00 in0.0 mm 0.00 in0.0 mm
11:00 AM 62.0°F16.7°C 54.7°F12.6°C 77% 3.5 mph SW5.6 kmh SW 5.8 mph9.3 kmh 30.13 in1020.3 mb - 0.00 in0.0 mm 0.00 in0.0 mm
11:10 AM 61.2°F16.2°C 53.6°F12.0°C 76% 3.5 mph NE5.6 kmh NE 5.8 mph9.3 kmh 30.12 in1020.0 mb - 0.00 in0.0 mm 0.00 in0.0 mm
11:20 AM 60.4°F15.8°C 53.1°F11.7°C 77% 3.5 mph E5.6 kmh E 3.5 mph5.6 kmh 30.12 in1020.0 mb - 0.00 in0.0 mm 0.00 in0.0 mm
11:30 AM 59.9°F15.5°C 53.3°F11.8°C 79% 1.2 mph N1.9 kmh N 2.3 mph3.7 kmh 30.12 in1020.0 mb - 0.00 in0.0 mm 0.00 in0.0 mm
11:40 AM 59.2°F15.1°C 53.7°F12.1°C 82% 3.5 mph SE5.6 kmh SE 3.5 mph5.6 kmh 30.11 in1019.6 mb - 0.00 in0.0 mm 0.00 in0.0 mm
11:50 AM 58.2°F14.6°C 54.9°F12.7°C 89% 1.2 mph SSW1.9 kmh SSW 1.2 mph1.9 kmh 30.11 in1019.6 mb - 0.01 in0.3 mm 0.01 in0.3 mm
12:00 PM 56.7°F13.7°C 55.0°F12.8°C 94% 1.2 mph NW1.9 kmh NW 2.3 mph3.7 kmh 30.11 in1019.6 mb - 0.04 in1.0 mm 0.04 in1.0 mm
12:10 PM 55.5°F13.1°C 54.6°F12.6°C 97% 2.3 mph SE3.7 kmh SE 1.2 mph1.9 kmh 30.11 in1019.6 mb - 0.06 in1.5 mm 0.06 in1.5 mm
12:20 PM 54.9°F12.7°C 54.0°F12.2°C 97% Calm Calm -- 30.11 in1019.6 mb - 0.10 in2.5 mm 0.10 in2.5 mm
12:30 PM 54.7°F12.6°C 53.9°F12.2°C 97% 2.3 mph N3.7 kmh N 5.8 mph9.3 kmh 30.10 in1019.3 mb - 0.16 in4.1 mm 0.16 in4.1 mm
12:40 PM 54.4°F12.4°C 53.5°F11.9°C 97% Calm Calm 1.2 mph1.9 kmh 30.09 in1019.0 mb - 0.21 in5.3 mm 0.21 in5.3 mm
12:50 PM 54.5°F12.5°C 53.7°F12.1°C 97% 1.2 mph NW1.9 kmh NW 2.3 mph3.7 kmh 30.09 in1019.0 mb - 0.25 in6.4 mm 0.26 in6.6 mm
01:00 PM 54.3°F12.4°C 53.4°F11.9°C 97% 1.2 mph NE1.9 kmh NE 2.3 mph3.7 kmh 30.09 in1019.0 mb - 0.24 in6.1 mm 0.28 in7.1 mm
01:10 PM 54.2°F12.3°C 53.4°F11.9°C 97% 2.3 mph NE3.7 kmh NE 2.3 mph3.7 kmh 30.09 in1019.0 mb - 0.26 in6.6 mm 0.32 in8.1 mm
01:20 PM 54.4°F12.4°C 53.6°F12.0°C 97% 4.6 mph E7.4 kmh E 8.1 mph13.0 kmh 30.10 in1019.3 mb - 0.24 in6.1 mm 0.33 in8.4 mm
01:30 PM 54.2°F12.3°C 53.4°F11.9°C 97% Calm Calm 2.3 mph3.7 kmh 30.09 in1019.0 mb - 0.21 in5.3 mm 0.37 in9.4 mm
01:40 PM 54.1°F12.3°C 53.3°F11.8°C 97% 3.5 mph 5.6 kmh 10.4 mph16.7 kmh 30.08 in1018.6 mb - 0.17 in4.3 mm 0.38 in9.7 mm
01:50 PM 53.8°F12.1°C 53.0°F11.7°C 97% 3.5 mph E5.6 kmh E 2.3 mph3.7 kmh 30.07 in1018.3 mb - 0.16 in4.1 mm 0.41 in10.4 mm
02:00 PM 53.4°F11.9°C 52.5°F11.4°C 97% 3.5 mph N5.6 kmh N 6.9 mph11.1 kmh 30.06 in1017.9 mb - 0.16 in4.1 mm 0.44 in11.2 mm
02:10 PM 52.9°F11.6°C 52.0°F11.1°C 97% 2.3 mph S3.7 kmh S 9.2 mph14.8 kmh 30.05 in1017.6 mb - 0.16 in4.1 mm 0.48 in12.2 mm
02:20 PM 52.7°F11.5°C 51.9°F11.1°C 97% 4.6 mph S7.4 kmh S 5.8 mph9.3 kmh 30.04 in1017.3 mb - 0.17 in4.3 mm 0.50 in12.7 mm
02:30 PM 52.7°F11.5°C 51.9°F11.1°C 97% 3.5 mph W5.6 kmh W 8.1 mph13.0 kmh 30.04 in1017.3 mb - 0.17 in4.3 mm 0.53 in13.5 mm
02:40 PM 52.8°F11.6°C 52.0°F11.1°C 97% 4.6 mph WSW7.4 kmh WSW 11.5 mph18.5 kmh 30.03 in1016.9 mb - 0.19 in4.8 mm 0.57 in14.5 mm
02:50 PM 53.1°F11.7°C 52.3°F11.3°C 97% 3.5 mph NE5.6 kmh NE 8.1 mph13.0 kmh 30.03 in1016.9 mb - 0.17 in4.3 mm 0.58 in14.7 mm
03:00 PM 53.3°F11.8°C 52.5°F11.4°C 97% 4.6 mph NE7.4 kmh NE 9.2 mph14.8 kmh 30.04 in1017.3 mb - 0.16 in4.1 mm 0.60 in15.2 mm
03:10 PM 53.4°F11.9°C 52.6°F11.4°C 97% 2.3 mph NNW3.7 kmh NNW 5.8 mph9.3 kmh 30.04 in1017.3 mb - 0.15 in3.8 mm 0.62 in15.7 mm
03:20 PM 53.4°F11.9°C 52.6°F11.4°C 97% 2.3 mph W3.7 kmh W 1.2 mph1.9 kmh 30.03 in1016.9 mb - 0.14 in3.6 mm 0.64 in16.3 mm
03:30 PM 53.5°F11.9°C 52.7°F11.5°C 97% 4.6 mph SE7.4 kmh SE 5.8 mph9.3 kmh 30.04 in1017.3 mb - 0.16 in4.1 mm 0.68 in17.3 mm
03:40 PM 53.6°F12.0°C 52.8°F11.6°C 97% 1.2 mph E1.9 kmh E 2.3 mph3.7 kmh 30.05 in1017.6 mb - 0.17 in4.3 mm 0.73 in18.5 mm
03:50 PM 53.7°F12.1°C 52.8°F11.6°C 97% 2.3 mph W3.7 kmh W 3.5 mph5.6 kmh 30.04 in1017.3 mb - 0.21 in5.3 mm 0.79 in20.1 mm
04:00 PM 53.7°F12.1°C 52.8°F11.6°C 97% Calm Calm -- 30.05 in1017.6 mb - 0.22 in5.6 mm 0.82 in20.8 mm
04:10 PM 53.7°F12.1°C 52.9°F11.6°C 97% 1.2 mph SW1.9 kmh SW 2.3 mph3.7 kmh 30.04 in1017.3 mb - 0.25 in6.4 mm 0.87 in22.1 mm
04:20 PM 53.8°F12.1°C 52.9°F11.6°C 97% 2.3 mph NNE3.7 kmh NNE 5.8 mph9.3 kmh 30.04 in1017.3 mb - 0.25 in6.4 mm 0.89 in22.6 mm
04:30 PM 53.8°F12.1°C 53.0°F11.7°C 97% 1.2 mph ENE1.9 kmh ENE 5.8 mph9.3 kmh 30.05 in1017.6 mb - 0.23 in5.8 mm 0.91 in23.1 mm
04:40 PM 53.9°F12.2°C 53.0°F11.7°C 97% 1.2 mph N1.9 kmh N 3.5 mph5.6 kmh 30.04 in1017.3 mb - 0.23 in5.8 mm 0.96 in24.4 mm
04:50 PM 53.9°F12.2°C 53.0°F11.7°C 97% 3.5 mph NW5.6 kmh NW 9.2 mph14.8 kmh 30.04 in1017.3 mb - 0.22 in5.6 mm 1.01 in25.7 mm
05:00 PM 54.0°F12.2°C 53.2°F11.8°C 97% 1.2 mph E1.9 kmh E 2.3 mph3.7 kmh 30.04 in1017.3 mb - 0.21 in5.3 mm 1.03 in26.2 mm
05:10 PM 54.0°F12.2°C 53.1°F11.7°C 97% 2.3 mph ESE3.7 kmh ESE 5.8 mph9.3 kmh 30.05 in1017.6 mb - 0.21 in5.3 mm 1.08 in27.4 mm
05:20 PM 53.9°F12.2°C 53.1°F11.7°C 97% 2.3 mph NW3.7 kmh NW 5.8 mph9.3 kmh 30.04 in1017.3 mb - 0.22 in5.6 mm 1.11 in28.2 mm
05:30 PM 53.8°F12.1°C 53.0°F11.7°C 97% 2.3 mph S3.7 kmh S 5.8 mph9.3 kmh 30.04 in1017.3 mb - 0.24 in6.1 mm 1.14 in29.0 mm
05:40 PM 53.7°F12.1°C 52.9°F11.6°C 97% 2.3 mph N3.7 kmh N 2.3 mph3.7 kmh 30.05 in1017.6 mb - 0.22 in5.6 mm 1.18 in30.0 mm
05:50 PM 53.5°F11.9°C 52.7°F11.5°C 97% 2.3 mph W3.7 kmh W 2.3 mph3.7 kmh 30.04 in1017.3 mb - 0.21 in5.3 mm 1.21 in30.7 mm
06:00 PM 53.4°F11.9°C 52.6°F11.4°C 97% 3.5 mph NNW5.6 kmh NNW 8.1 mph13.0 kmh 30.04 in1017.3 mb - 0.22 in5.6 mm 1.25 in31.8 mm
06:10 PM 53.2°F11.8°C 52.4°F11.3°C 97% 2.3 mph E3.7 kmh E 3.5 mph5.6 kmh 30.04 in1017.3 mb - 0.20 in5.1 mm 1.28 in32.5 mm
06:20 PM 53.2°F11.8°C 52.3°F11.3°C 97% 2.3 mph SE3.7 kmh SE 2.3 mph3.7 kmh 30.04 in1017.3 mb - 0.21 in5.3 mm 1.32 in33.5 mm
06:30 PM 53.1°F11.7°C 52.3°F11.3°C 97% Calm Calm 2.3 mph3.7 kmh 30.03 in1016.9 mb - 0.21 in5.3 mm 1.35 in34.3 mm
06:40 PM 53.1°F11.7°C 52.3°F11.3°C 97% 1.2 mph NNE1.9 kmh NNE 8.1 mph13.0 kmh 30.03 in1016.9 mb - 0.20 in5.1 mm 1.37 in34.8 mm
06:50 PM 53.1°F11.7°C 52.3°F11.3°C 97% 1.2 mph SE1.9 kmh SE 2.3 mph3.7 kmh 30.03 in1016.9 mb - 0.17 in4.3 mm 1.38 in35.1 mm
07:00 PM 53.1°F11.7°C 52.3°F11.3°C 97% 3.5 mph NNE5.6 kmh NNE 3.5 mph5.6 kmh 30.03 in1016.9 mb - 0.14 in3.6 mm 1.38 in35.1 mm
07:10 PM 53.1°F11.7°C 52.3°F11.3°C 97% 2.3 mph E3.7 kmh E 2.3 mph3.7 kmh 30.03 in1016.9 mb - 0.11 in2.8 mm 1.39 in35.3 mm
07:20 PM 53.2°F11.8°C 52.4°F11.3°C 97% 2.3 mph ESE3.7 kmh ESE 5.8 mph9.3 kmh 30.03 in1016.9 mb - 0.09 in2.3 mm 1.40 in35.6 mm
07:30 PM 53.2°F11.8°C 52.4°F11.3°C 97% 2.3 mph NE3.7 kmh NE 5.8 mph9.3 kmh 30.03 in1016.9 mb - 0.07 in1.8 mm 1.42 in36.1 mm
07:40 PM 53.3°F11.8°C 52.5°F11.4°C 97% 2.3 mph N3.7 kmh N 2.3 mph3.7 kmh 30.03 in1016.9 mb - 0.07 in1.8 mm 1.43 in36.3 mm
07:50 PM 53.2°F11.8°C 52.4°F11.3°C 97% 2.3 mph NW3.7 kmh NW 2.3 mph3.7 kmh 30.02 in1016.6 mb - 0.06 in1.5 mm 1.44 in36.6 mm
08:00 PM 53.2°F11.8°C 52.4°F11.3°C 97% 2.3 mph N3.7 kmh N 2.3 mph3.7 kmh 30.02 in1016.6 mb - 0.08 in2.0 mm 1.46 in37.1 mm
08:10 PM 53.1°F11.7°C 52.3°F11.3°C 97% 3.5 mph NW5.6 kmh NW 2.3 mph3.7 kmh 30.02 in1016.6 mb - 0.09 in2.3 mm 1.48 in37.6 mm
08:20 PM 53.0°F11.7°C 52.2°F11.2°C 97% 2.3 mph N3.7 kmh N 3.5 mph5.6 kmh 30.02 in1016.6 mb - 0.09 in2.3 mm 1.49 in37.8 mm
08:30 PM 53.0°F11.7°C 52.2°F11.2°C 97% 3.5 mph NW5.6 kmh NW 5.8 mph9.3 kmh 30.01 in1016.3 mb - 0.08 in2.0 mm 1.50 in38.1 mm
08:40 PM 53.0°F11.7°C 52.2°F11.2°C 97% 2.3 mph WSW3.7 kmh WSW 5.8 mph9.3 kmh 30.01 in1016.3 mb - 0.07 in1.8 mm 1.50 in38.1 mm
08:50 PM 53.0°F11.7°C 52.2°F11.2°C 97% 3.5 mph S5.6 kmh S 2.3 mph3.7 kmh 30.01 in1016.3 mb - 0.07 in1.8 mm 1.51 in38.4 mm
09:00 PM 53.0°F11.7°C 52.1°F11.2°C 97% 1.2 mph SW1.9 kmh SW 2.3 mph3.7 kmh 30.01 in1016.3 mb - 0.06 in1.5 mm 1.52 in38.6 mm
09:10 PM 53.0°F11.7°C 52.2°F11.2°C 97% Calm Calm 2.3 mph3.7 kmh 30.00 in1015.9 mb - 0.04 in1.0 mm 1.52 in38.6 mm
09:20 PM 53.1°F11.7°C 52.3°F11.3°C 97% 1.2 mph ENE1.9 kmh ENE 2.3 mph3.7 kmh 30.00 in1015.9 mb - 0.04 in1.0 mm 1.53 in38.9 mm
09:30 PM 53.2°F11.8°C 52.3°F11.3°C 97% 1.2 mph E1.9 kmh E 1.2 mph1.9 kmh 29.99 in1015.6 mb - 0.05 in1.3 mm 1.55 in39.4 mm
09:40 PM 53.3°F11.8°C 52.4°F11.3°C 97% 1.2 mph W1.9 kmh W 2.3 mph3.7 kmh 29.99 in1015.6 mb - 0.07 in1.8 mm 1.57 in39.9 mm
09:50 PM 53.3°F11.8°C 52.5°F11.4°C 97% 1.2 mph NNW1.9 kmh NNW 2.3 mph3.7 kmh 29.99 in1015.6 mb - 0.10 in2.5 mm 1.61 in40.9 mm
10:00 PM 53.5°F11.9°C 52.6°F11.4°C 97% 1.2 mph SE1.9 kmh SE 2.3 mph3.7 kmh 29.98 in1015.2 mb - 0.12 in3.0 mm 1.64 in41.7 mm
10:10 PM 53.6°F12.0°C 52.7°F11.5°C 97% 1.2 mph N1.9 kmh N 1.2 mph1.9 kmh 29.98 in1015.2 mb - 0.13 in3.3 mm 1.65 in41.9 mm
10:20 PM 53.8°F12.1°C 52.9°F11.6°C 97% 2.3 mph WNW3.7 kmh WNW 5.8 mph9.3 kmh 29.98 in1015.2 mb - 0.16 in4.1 mm 1.68 in42.7 mm
10:30 PM 54.0°F12.2°C 53.1°F11.7°C 97% 2.3 mph SE3.7 kmh SE 2.3 mph3.7 kmh 29.97 in1014.9 mb - 0.18 in4.6 mm 1.72 in43.7 mm
10:40 PM 54.0°F12.2°C 53.1°F11.7°C 97% 2.3 mph SE3.7 kmh SE 2.3 mph3.7 kmh 29.97 in1014.9 mb - 0.20 in5.1 mm 1.77 in45.0 mm
10:50 PM 53.5°F11.9°C 52.6°F11.4°C 97% 1.2 mph ENE1.9 kmh ENE 3.5 mph5.6 kmh 29.97 in1014.9 mb - 0.21 in5.3 mm 1.82 in46.2 mm
11:00 PM 52.7°F11.5°C 51.9°F11.1°C 97% 2.3 mph E3.7 kmh E 2.3 mph3.7 kmh 29.97 in1014.9 mb - 0.20 in5.1 mm 10.62 in269.7 mm
11:10 PM 52.4°F11.3°C 51.5°F10.8°C 97% 2.3 mph E3.7 kmh E 3.5 mph5.6 kmh 29.97 in1014.9 mb - 0.22 in5.6 mm 0.03 in0.8 mm
11:20 PM 52.2°F11.2°C 51.4°F10.8°C 97% 1.2 mph E1.9 kmh E 2.3 mph3.7 kmh 29.97 in1014.9 mb - 0.23 in5.8 mm 0.06 in1.5 mm
11:30 PM 52.0°F11.1°C 51.2°F10.7°C 97% 3.5 mph NW5.6 kmh NW 2.3 mph3.7 kmh 29.97 in1014.9 mb - 0.20 in5.1 mm 0.08 in2.0 mm
11:40 PM 51.7°F10.9°C 50.9°F10.5°C 97% 2.3 mph E3.7 kmh E 3.5 mph5.6 kmh 29.97 in1014.9 mb - 0.20 in5.1 mm 0.12 in3.0 mm
11:50 PM 51.4°F10.8°C 50.5°F10.3°C 97% 2.3 mph SE3.7 kmh SE 3.5 mph5.6 kmh 29.96 in1014.6 mb - 0.18 in4.6 mm 0.16 in4.1 mm